createdAt,value
2022-09-26T00:01:42.746Z,10.00
2022-09-26T00:04:13.864Z,10.00
2022-09-26T00:06:41.848Z,9.75
2022-09-26T00:09:09.920Z,10.00
2022-09-26T00:11:40.123Z,8.00
2022-09-26T00:14:10.682Z,8.00
2022-09-26T00:16:39.201Z,12.00
2022-09-26T00:19:08.416Z,7.00
2022-09-26T00:21:37.150Z,11.75
2022-09-26T00:24:05.604Z,2.50
2022-09-26T00:26:35.000Z,11.00
2022-09-26T00:29:07.366Z,10.00
2022-09-26T00:31:37.082Z,10.50
2022-09-26T00:34:05.251Z,8.50
2022-09-26T00:36:38.323Z,9.25
2022-09-26T00:39:07.342Z,8.50
2022-09-26T00:41:35.895Z,9.75
2022-09-26T00:44:25.444Z,9.25
2022-09-26T00:46:54.007Z,7.00
2022-09-26T00:49:24.441Z,8.00
2022-09-26T00:51:54.251Z,10.50
2022-09-26T00:54:23.034Z,9.75
2022-09-26T00:56:52.130Z,10.25
2022-09-26T00:59:24.253Z,8.75
2022-09-26T01:01:52.705Z,9.25
2022-09-26T01:04:21.267Z,7.50
2022-09-26T01:06:50.112Z,10.00
2022-09-26T01:09:18.320Z,11.50
2022-09-26T01:11:46.613Z,12.50
2022-09-26T01:14:21.085Z,10.00
2022-09-26T01:16:51.808Z,13.50
2022-09-26T01:19:25.577Z,12.25
2022-09-26T01:22:02.660Z,12.75
2022-09-26T01:24:40.865Z,11.00
2022-09-26T01:27:23.729Z,2.00
2022-09-26T01:30:10.856Z,10.50
2022-09-26T01:32:57.353Z,12.25
2022-09-26T01:35:36.324Z,5.00
2022-09-26T01:38:11.564Z,12.00
2022-09-26T01:40:43.659Z,12.25
2022-09-26T01:43:17.282Z,9.75
2022-09-26T01:45:51.142Z,5.25
2022-09-26T01:48:21.258Z,11.00
2022-09-26T01:50:52.189Z,5.50
2022-09-26T01:53:23.284Z,11.50
2022-09-26T01:55:56.414Z,8.00
2022-09-26T01:58:27.016Z,11.50
2022-09-26T02:00:59.391Z,10.00
2022-09-26T02:03:29.462Z,9.75
2022-09-26T02:05:59.714Z,9.25
2022-09-26T02:08:30.000Z,9.00
2022-09-26T02:11:02.926Z,7.00
2022-09-26T02:13:32.955Z,10.25
2022-09-26T02:16:06.763Z,7.00
2022-09-26T02:18:37.430Z,11.50
2022-09-26T02:21:11.245Z,10.25
2022-09-26T02:23:39.409Z,11.50
2022-09-26T02:26:07.924Z,12.75
2022-09-26T02:28:36.012Z,12.75
2022-09-26T02:31:08.522Z,10.00
2022-09-26T02:33:36.975Z,17.25
2022-09-26T02:36:08.609Z,12.50
2022-09-26T02:38:37.314Z,12.25
2022-09-26T02:41:30.324Z,9.75
2022-09-26T02:44:06.669Z,8.75
2022-09-26T02:46:51.552Z,15.75
2022-09-26T02:49:37.491Z,11.00
2022-09-26T02:52:17.364Z,8.75
2022-09-26T02:54:51.142Z,12.25
2022-09-26T02:57:25.526Z,4.50
2022-09-26T02:59:57.833Z,12.00
2022-09-26T03:02:31.362Z,12.75
2022-09-26T03:05:19.152Z,5.33
2022-09-26T03:07:51.388Z,14.25
2022-09-26T03:10:20.726Z,11.00
2022-09-26T03:12:50.570Z,12.00
2022-09-26T03:15:19.744Z,10.00
2022-09-26T03:17:49.824Z,8.75
2022-09-26T03:20:20.447Z,9.00
2022-09-26T03:22:52.045Z,10.00
2022-09-26T03:25:22.029Z,10.50
2022-09-26T03:27:57.323Z,5.50
2022-09-26T03:30:25.865Z,9.00
2022-09-26T03:33:33.002Z,9.00
2022-09-26T03:36:05.245Z,7.25
2022-09-26T03:38:34.872Z,8.50
2022-09-26T03:41:23.332Z,11.00
2022-09-26T03:44:09.520Z,10.00
2022-09-26T03:46:58.147Z,10.00
2022-09-26T03:49:26.302Z,9.25
2022-09-26T03:51:54.486Z,11.00
2022-09-26T03:54:24.032Z,10.25
2022-09-26T03:56:52.100Z,9.75
2022-09-26T03:59:20.266Z,8.25
2022-09-26T04:01:49.418Z,12.00
2022-09-26T04:04:17.945Z,8.50
2022-09-26T04:06:46.838Z,9.00
2022-09-26T04:09:17.749Z,8.00
2022-09-26T04:11:53.977Z,9.50
2022-09-26T04:14:22.925Z,10.25
2022-09-26T04:16:58.527Z,8.25
2022-09-26T04:19:40.482Z,5.50
2022-09-26T04:22:09.238Z,9.00
2022-09-26T04:24:37.439Z,8.50
2022-09-26T04:27:08.708Z,6.00
2022-09-26T04:29:37.878Z,9.00
2022-09-26T04:32:20.709Z,6.00
2022-09-26T04:35:21.071Z,5.25
2022-09-26T04:37:49.443Z,8.50
2022-09-26T04:40:17.657Z,7.50
2022-09-26T04:43:00.435Z,6.00
2022-09-26T04:45:28.699Z,9.50
2022-09-26T04:47:57.049Z,9.75
2022-09-26T04:50:29.006Z,8.00
2022-09-26T04:53:07.717Z,4.50
2022-09-26T04:55:45.119Z,8.00
2022-09-26T04:58:14.583Z,7.50
2022-09-26T05:00:45.724Z,5.75
2022-09-26T05:03:15.926Z,9.00
2022-09-26T05:05:45.285Z,2.00
2022-09-26T05:08:14.130Z,6.50
2022-09-26T05:10:42.268Z,6.00
2022-09-26T05:13:10.255Z,6.00
2022-09-26T05:15:41.756Z,8.00
2022-09-26T05:18:11.612Z,7.00
2022-09-26T05:20:39.835Z,5.00
2022-09-26T05:23:09.048Z,5.00
2022-09-26T05:25:55.150Z,6.50
2022-09-26T05:28:24.190Z,6.00
2022-09-26T05:30:54.560Z,5.00
2022-09-26T05:33:23.207Z,8.00
2022-09-26T05:35:54.905Z,8.25
2022-09-26T05:38:23.347Z,6.00
2022-09-26T05:40:56.729Z,8.00
2022-09-26T05:43:27.129Z,7.25
2022-09-26T05:46:01.720Z,6.50
2022-09-26T05:48:36.452Z,4.75
2022-09-26T05:51:06.064Z,5.25
2022-09-26T05:53:34.535Z,5.50
2022-09-26T05:56:02.915Z,5.75
2022-09-26T05:58:40.273Z,7.00
2022-09-26T06:01:19.588Z,6.50
2022-09-26T06:03:54.787Z,4.00
2022-09-26T06:06:28.372Z,7.50
2022-09-26T06:09:03.909Z,7.75
2022-09-26T06:11:52.255Z,5.00
2022-09-26T06:14:21.157Z,7.25
2022-09-26T06:16:51.445Z,5.50
2022-09-26T06:19:22.987Z,6.00
2022-09-26T06:21:51.703Z,10.00
2022-09-26T06:24:20.614Z,10.00
2022-09-26T06:26:52.196Z,9.50
2022-09-26T06:29:20.380Z,10.50
2022-09-26T06:31:48.638Z,10.25
2022-09-26T06:34:36.791Z,10.50
2022-09-26T06:37:29.710Z,9.50
2022-09-26T06:39:59.534Z,9.25
2022-09-26T06:42:29.598Z,6.75
2022-09-26T06:45:19.399Z,7.00
2022-09-26T06:48:06.407Z,4.50
2022-09-26T06:51:08.214Z,9.75
2022-09-26T06:53:36.954Z,5.00
2022-09-26T06:56:06.194Z,7.50
2022-09-26T06:58:34.487Z,5.00
2022-09-26T07:01:07.812Z,9.25
2022-09-26T07:03:54.870Z,9.00
2022-09-26T07:06:43.237Z,2.00
2022-09-26T07:09:12.711Z,6.50
2022-09-26T07:14:41.746Z,3.50
2022-09-26T07:17:19.845Z,9.00
2022-09-26T07:20:08.201Z,6.00
2022-09-26T07:23:17.051Z,5.00
2022-09-26T07:25:47.037Z,0.00
2022-09-26T07:28:15.620Z,5.50
2022-09-26T07:30:51.008Z,6.00
2022-09-26T07:33:27.778Z,6.50
2022-09-26T07:36:00.769Z,5.50
2022-09-26T07:38:38.736Z,6.25
2022-09-26T07:41:11.687Z,6.50
2022-09-26T07:44:59.331Z,6.25
2022-09-26T07:50:06.444Z,6.00
2022-09-26T07:53:06.613Z,7.50
2022-09-26T07:56:07.212Z,7.00
2022-09-26T07:58:59.240Z,6.75
2022-09-26T08:01:49.306Z,7.00
2022-09-26T08:04:36.066Z,5.00
2022-09-26T08:07:05.372Z,6.00
2022-09-26T08:09:38.263Z,6.00
2022-09-26T08:12:28.193Z,3.00
2022-09-26T08:15:11.341Z,4.75
2022-09-26T08:17:48.090Z,6.00
2022-09-26T08:20:20.957Z,3.00
2022-09-26T08:22:51.423Z,6.00
2022-09-26T08:25:20.148Z,6.75
2022-09-26T08:28:03.215Z,9.00
2022-09-26T08:30:31.661Z,6.00
2022-09-26T08:33:03.458Z,6.00
2022-09-26T08:35:45.478Z,2.00
2022-09-26T08:38:25.577Z,7.25
2022-09-26T08:41:42.069Z,6.75
2022-09-26T08:44:57.046Z,5.00
2022-09-26T08:47:59.053Z,5.75
2022-09-26T08:50:37.673Z,2.00
2022-09-26T08:53:07.793Z,3.50
2022-09-26T08:55:44.013Z,5.00
2022-09-26T08:58:17.055Z,5.00
2022-09-26T09:00:51.520Z,4.50
2022-09-26T09:03:27.065Z,1.50
2022-09-26T09:06:01.390Z,5.00
2022-09-26T09:08:34.327Z,5.00
2022-09-26T09:11:20.145Z,2.00
2022-09-26T09:14:06.116Z,7.00
2022-09-26T09:17:05.538Z,4.25
2022-09-26T09:20:06.333Z,0.00
2022-09-26T09:23:11.048Z,4.50
2022-09-26T09:25:49.799Z,5.00
2022-09-26T09:28:29.017Z,6.75
2022-09-26T09:31:00.550Z,3.67
2022-09-26T09:34:01.427Z,5.00
2022-09-26T09:36:50.109Z,6.00
2022-09-26T09:39:28.724Z,7.75
2022-09-26T09:42:20.191Z,5.75
2022-09-26T09:44:50.158Z,6.75
2022-09-26T09:47:19.161Z,6.00
2022-09-26T09:49:50.206Z,6.00
2022-09-26T09:52:29.325Z,6.00
2022-09-26T09:55:04.167Z,4.50
2022-09-26T09:57:42.322Z,5.50
2022-09-26T10:00:13.930Z,4.75
2022-09-26T10:03:02.947Z,4.75
2022-09-26T10:05:43.086Z,5.00
2022-09-26T10:08:23.996Z,5.25
2022-09-26T10:11:23.329Z,5.00
2022-09-26T10:14:03.445Z,3.00
2022-09-26T10:17:17.061Z,5.50
2022-09-26T10:23:19.161Z,4.00
2022-09-26T10:25:51.974Z,4.00
2022-09-26T10:28:25.669Z,3.75
2022-09-26T10:30:58.035Z,6.00
2022-09-26T10:33:30.980Z,3.00
2022-09-26T10:36:19.781Z,2.00
2022-09-26T10:39:11.755Z,2.75
2022-09-26T10:41:41.820Z,2.00
2022-09-26T10:44:23.001Z,3.00
2022-09-26T10:47:08.764Z,1.50
2022-09-26T10:50:04.778Z,1.50
2022-09-26T10:53:01.452Z,1.50
2022-09-26T10:55:39.761Z,2.00
2022-09-26T10:58:13.736Z,2.00
2022-09-26T11:00:45.351Z,2.00
2022-09-26T11:03:26.448Z,2.00
2022-09-26T11:06:24.140Z,3.00
2022-09-26T11:08:57.441Z,3.00
2022-09-26T11:11:59.796Z,2.00
2022-09-26T11:14:34.860Z,2.00
2022-09-26T11:17:12.495Z,2.00
2022-09-26T11:19:48.944Z,2.00
2022-09-26T11:22:26.099Z,1.00
2022-09-26T11:25:00.921Z,1.00
2022-09-26T11:27:34.022Z,1.00
2022-09-26T11:30:09.460Z,1.75
2022-09-26T11:32:45.410Z,2.00
2022-09-26T11:35:47.020Z,1.00
2022-09-26T11:38:25.190Z,2.00
2022-09-26T11:41:03.073Z,1.00
2022-09-26T11:43:50.764Z,1.00
2022-09-26T11:46:46.738Z,0.00
2022-09-26T11:49:56.159Z,1.00
2022-09-26T11:52:49.370Z,1.00
2022-09-26T11:55:25.298Z,2.00
2022-09-26T11:58:03.544Z,1.50
2022-09-26T12:00:40.284Z,2.00
2022-09-26T12:03:23.569Z,1.00
2022-09-26T12:05:54.316Z,1.00
2022-09-26T12:08:29.563Z,2.50
2022-09-26T12:11:03.072Z,2.00
2022-09-26T12:13:38.690Z,1.25
2022-09-26T12:16:12.850Z,0.00
2022-09-26T12:18:46.378Z,12.00
2022-09-26T12:21:35.273Z,2.00
2022-09-26T12:24:08.258Z,6.33
2022-09-26T12:26:41.257Z,2.00
2022-09-26T12:29:34.786Z,2.00
2022-09-26T12:32:14.653Z,22.50
2022-09-26T12:35:03.695Z,6.00
2022-09-26T12:37:44.870Z,0.00
2022-09-26T12:40:22.718Z,21.00
2022-09-26T12:43:04.915Z,25.25
2022-09-26T12:45:55.103Z,31.00
2022-09-26T12:48:33.361Z,23.50
2022-09-26T12:51:08.352Z,11.75
2022-09-26T12:53:45.844Z,1.50
2022-09-26T12:56:22.399Z,3.00
2022-09-26T12:58:58.058Z,11.00
2022-09-26T13:01:43.595Z,7.00
2022-09-26T13:04:21.088Z,3.50
2022-09-26T13:07:18.995Z,2.00
2022-09-26T13:10:06.163Z,0.00
2022-09-26T13:12:41.291Z,2.00
2022-09-26T13:15:17.786Z,4.75
2022-09-26T13:17:49.252Z,2.50
2022-09-26T13:20:21.665Z,0.25
2022-09-26T13:22:53.329Z,1.00
2022-09-26T13:25:24.469Z,1.00
2022-09-26T13:27:58.243Z,0.00
2022-09-26T13:30:27.864Z,1.00
2022-09-26T13:33:03.795Z,1.00
2022-09-26T13:35:36.899Z,0.00
2022-09-26T13:38:14.390Z,1.50
2022-09-26T13:40:46.756Z,1.75
2022-09-26T13:43:23.836Z,2.00
2022-09-26T13:46:02.610Z,2.00
2022-09-26T13:48:38.839Z,4.75
2022-09-26T13:51:18.289Z,3.75
2022-09-26T13:53:52.795Z,4.00
2022-09-26T13:56:51.559Z,4.75
2022-09-26T13:59:26.428Z,5.75
2022-09-26T14:02:14.360Z,2.00
2022-09-26T14:04:42.765Z,2.00
2022-09-26T14:07:37.696Z,0.00
2022-09-26T14:10:13.881Z,0.00
2022-09-26T14:12:56.809Z,2.00
2022-09-26T14:15:27.147Z,2.00
2022-09-26T14:18:10.358Z,1.25
2022-09-26T14:20:56.459Z,1.00
2022-09-26T14:23:40.705Z,0.00
2022-09-26T14:26:10.506Z,1.25
2022-09-26T14:28:39.584Z,0.00
2022-09-26T14:31:28.632Z,2.00
2022-09-26T14:34:06.756Z,1.00
2022-09-26T14:36:36.425Z,3.00
2022-09-26T14:39:09.900Z,2.00
2022-09-26T14:41:42.832Z,0.75
2022-09-26T14:44:27.665Z,1.25
2022-09-26T14:46:56.561Z,0.50
2022-09-26T14:49:29.608Z,2.00
2022-09-26T14:52:01.166Z,3.00
2022-09-26T14:54:36.598Z,1.25
2022-09-26T14:57:08.164Z,3.00
2022-09-26T14:59:41.052Z,1.00
2022-09-26T15:02:28.834Z,2.00
2022-09-26T15:05:02.697Z,1.00
2022-09-26T15:07:33.539Z,2.00
2022-09-26T15:10:07.073Z,2.00
2022-09-26T15:12:40.111Z,1.50
2022-09-26T15:15:14.352Z,1.00
2022-09-26T15:17:47.210Z,0.75
2022-09-26T15:20:18.291Z,1.00
2022-09-26T15:22:46.970Z,1.00
2022-09-26T15:25:22.019Z,1.00
2022-09-26T15:27:54.291Z,1.00
2022-09-26T15:30:24.667Z,0.50
2022-09-26T15:32:57.168Z,0.00
2022-09-26T15:35:26.860Z,1.00
2022-09-26T15:37:58.590Z,0.00
2022-09-26T15:40:31.148Z,2.00
2022-09-26T15:43:03.129Z,1.00
2022-09-26T15:45:33.663Z,1.00
2022-09-26T15:48:03.334Z,0.25
2022-09-26T15:50:34.645Z,1.00
2022-09-26T15:53:07.021Z,0.00
2022-09-26T15:55:39.506Z,0.00
2022-09-26T15:58:08.485Z,1.00
2022-09-26T16:00:38.605Z,0.75
2022-09-26T16:03:24.729Z,0.50
2022-09-26T16:05:53.653Z,1.00
2022-09-26T16:08:23.051Z,1.00
2022-09-26T16:10:58.258Z,1.00
2022-09-26T16:13:28.693Z,1.00
2022-09-26T16:16:04.276Z,1.50
2022-09-26T16:18:38.833Z,1.00
2022-09-26T16:21:18.478Z,4.50
2022-09-26T16:23:47.679Z,1.00
2022-09-26T16:26:30.310Z,1.00
2022-09-26T16:28:58.795Z,2.00
2022-09-26T16:31:29.971Z,1.00
2022-09-26T16:33:59.907Z,1.00
2022-09-26T16:36:29.820Z,1.50
2022-09-26T16:39:02.548Z,1.00
2022-09-26T16:42:02.383Z,1.00
2022-09-26T16:44:36.601Z,2.00
2022-09-26T16:47:08.200Z,0.75
2022-09-26T16:49:48.645Z,1.00
2022-09-26T16:52:28.332Z,2.00
2022-09-26T16:54:57.532Z,2.00
2022-09-26T16:57:29.757Z,1.00
2022-09-26T17:00:16.780Z,2.00
2022-09-26T17:02:49.693Z,1.50
2022-09-26T17:05:28.424Z,3.00
2022-09-26T17:07:56.648Z,4.00
2022-09-26T17:10:26.709Z,2.00
2022-09-26T17:12:56.692Z,2.50
2022-09-26T17:15:28.086Z,4.00
2022-09-26T17:17:57.165Z,3.50
2022-09-26T17:20:27.089Z,2.00
2022-09-26T17:22:56.176Z,4.25
2022-09-26T17:25:28.805Z,3.50
2022-09-26T17:28:02.600Z,4.00
2022-09-26T17:30:30.884Z,2.00
2022-09-26T17:33:00.266Z,5.25
2022-09-26T17:35:33.189Z,4.00
2022-09-26T17:38:04.889Z,2.00
2022-09-26T17:40:58.829Z,4.75
2022-09-26T17:43:38.034Z,4.00
2022-09-26T17:46:15.227Z,5.00
2022-09-26T17:48:59.524Z,5.00
2022-09-26T17:51:37.560Z,3.50
2022-09-26T17:54:07.920Z,4.50
2022-09-26T17:56:44.409Z,4.50
2022-09-26T17:59:28.901Z,4.00
2022-09-26T18:01:59.192Z,5.00
2022-09-26T18:04:29.533Z,5.00
2022-09-26T18:07:00.825Z,6.00
2022-09-26T18:09:34.933Z,5.00
2022-09-26T18:12:16.314Z,7.00
2022-09-26T18:14:46.474Z,4.25
2022-09-26T18:17:16.306Z,5.00
2022-09-26T18:19:45.462Z,7.00
2022-09-26T18:22:16.686Z,7.00
2022-09-26T18:24:47.310Z,8.00
2022-09-26T18:27:26.794Z,11.00
2022-09-26T18:30:23.912Z,8.00
2022-09-26T18:32:56.822Z,7.25
2022-09-26T18:35:30.069Z,7.50
2022-09-26T18:38:00.046Z,5.00
2022-09-26T18:40:30.251Z,4.00
2022-09-26T18:42:59.394Z,4.00
2022-09-26T18:45:29.533Z,4.00
2022-09-26T18:47:59.533Z,7.25
2022-09-26T18:50:30.423Z,8.00
2022-09-26T18:52:58.693Z,4.00
2022-09-26T18:55:44.884Z,2.00
2022-09-26T18:58:26.705Z,6.75
2022-09-26T19:00:58.586Z,5.25
2022-09-26T19:03:29.288Z,7.50
2022-09-26T19:06:01.708Z,8.00
2022-09-26T19:08:33.617Z,6.25
2022-09-26T19:11:04.193Z,2.00
2022-09-26T19:13:32.675Z,7.00
2022-09-26T19:16:01.064Z,7.00
2022-09-26T19:18:30.868Z,7.00
2022-09-26T19:20:59.148Z,8.50
2022-09-26T19:23:29.610Z,7.50
2022-09-26T19:25:57.893Z,7.00
2022-09-26T19:28:33.935Z,10.50
2022-09-26T19:31:05.449Z,7.75
2022-09-26T19:33:36.873Z,9.25
2022-09-26T19:36:07.798Z,9.00
2022-09-26T19:38:36.106Z,8.00
2022-09-26T19:41:04.383Z,5.00
2022-09-26T19:43:32.803Z,16.00
2022-09-26T19:46:09.857Z,11.75
2022-09-26T19:48:44.252Z,1.25
2022-09-26T19:51:14.272Z,7.00
2022-09-26T19:53:42.727Z,8.50
2022-09-26T19:56:11.058Z,14.75
2022-09-26T19:58:39.312Z,15.00
2022-09-26T20:01:15.132Z,15.25
2022-09-26T20:03:46.327Z,12.50
2022-09-26T20:06:18.228Z,14.75
2022-09-26T20:08:46.607Z,14.00
2022-09-26T20:11:26.316Z,15.75
2022-09-26T20:14:13.127Z,6.75
2022-09-26T20:16:53.218Z,13.00
2022-09-26T20:19:33.470Z,10.00
2022-09-26T20:22:03.718Z,14.75
2022-09-26T20:24:33.459Z,14.75
2022-09-26T20:27:06.209Z,0.00
2022-09-26T20:29:49.975Z,30.80
2022-09-26T20:32:19.341Z,25.40
2022-09-26T20:34:49.648Z,32.20
2022-09-26T20:37:20.847Z,31.40
2022-09-26T20:39:49.123Z,31.20
2022-09-26T20:42:18.980Z,39.20
2022-09-26T20:44:49.093Z,41.40
2022-09-26T20:47:19.658Z,43.60
2022-09-26T20:49:51.609Z,42.60
2022-09-26T20:52:21.929Z,43.80
2022-09-26T20:54:50.961Z,43.40
2022-09-26T20:57:19.908Z,40.40
2022-09-26T20:59:48.187Z,40.60
2022-09-26T21:02:25.845Z,41.80
2022-09-26T21:04:56.167Z,42.60
2022-09-26T21:07:24.872Z,40.00
2022-09-26T21:09:53.156Z,42.20
2022-09-26T21:12:21.359Z,43.00
2022-09-26T21:14:49.704Z,39.20
2022-09-26T21:17:19.612Z,39.20
2022-09-26T21:19:48.258Z,39.80
2022-09-26T21:22:38.705Z,41.60
2022-09-26T21:25:07.811Z,40.80
2022-09-26T21:27:36.012Z,40.60
2022-09-26T21:30:04.331Z,41.00
2022-09-26T21:32:32.465Z,41.20
2022-09-26T21:35:03.801Z,34.00
2022-09-26T21:37:32.458Z,39.20
2022-09-26T21:40:02.675Z,40.00
2022-09-26T21:42:31.321Z,24.00
2022-09-26T21:45:02.202Z,32.40
2022-09-26T21:47:31.632Z,39.00
2022-09-26T21:50:00.288Z,39.00
2022-09-26T21:52:32.184Z,36.60
2022-09-26T21:55:02.707Z,37.00
2022-09-26T21:57:35.281Z,39.60
2022-09-26T22:00:04.895Z,41.60
2022-09-26T22:02:42.382Z,40.20
2022-09-26T22:05:11.823Z,23.80
2022-09-26T22:07:40.222Z,34.40
2022-09-26T22:10:10.108Z,35.20
2022-09-26T22:12:39.148Z,34.00
2022-09-26T22:15:08.108Z,37.20
2022-09-26T22:17:36.428Z,35.80
2022-09-26T22:20:04.700Z,31.00
2022-09-26T22:22:32.821Z,35.80
2022-09-26T22:25:04.206Z,34.00
2022-09-26T22:27:34.546Z,35.20
2022-09-26T22:30:02.694Z,38.00
2022-09-26T22:32:30.887Z,36.20
2022-09-26T22:34:59.299Z,35.60
2022-09-26T22:37:27.557Z,32.80
2022-09-26T22:39:56.022Z,36.40
2022-09-26T22:42:24.249Z,30.60
2022-09-26T22:44:53.973Z,31.40
2022-09-26T22:47:22.515Z,36.60
2022-09-26T22:49:50.724Z,39.80
2022-09-26T22:52:18.983Z,29.60
2022-09-26T22:54:48.200Z,34.00
2022-09-26T22:57:16.792Z,31.00
2022-09-26T22:59:45.002Z,34.00
2022-09-26T23:02:14.673Z,21.20
2022-09-26T23:04:48.808Z,33.40
2022-09-26T23:07:18.182Z,24.20
2022-09-26T23:09:46.362Z,33.20
2022-09-26T23:12:14.519Z,33.80
2022-09-26T23:14:42.886Z,33.20
2022-09-26T23:17:11.124Z,33.00
2022-09-26T23:19:41.488Z,35.00
2022-09-26T23:22:09.664Z,33.00
2022-09-26T23:24:37.982Z,37.80
2022-09-26T23:27:06.322Z,35.00
2022-09-26T23:29:34.535Z,32.00
2022-09-26T23:32:02.961Z,21.75
2022-09-26T23:34:31.260Z,29.00
2022-09-26T23:37:00.816Z,27.20
2022-09-26T23:39:28.970Z,33.00
2022-09-26T23:41:57.604Z,29.00
2022-09-26T23:44:27.900Z,34.20
2022-09-26T23:46:56.120Z,34.00
2022-09-26T23:49:24.396Z,39.00
2022-09-26T23:51:52.686Z,38.20
2022-09-26T23:54:22.369Z,29.80
2022-09-26T23:56:50.611Z,27.40
2022-09-26T23:59:18.773Z,31.20
